Time;durP1;ratioP1;P1;durP2;ratioP2;P2;SDS_P1;SDS_P2;PMS_P1;PMS_P2;Temp;Humidity;BMP_temperature;BMP_pressure;BME280_temperature;BME280_humidity;BME280_pressure;Samples;Min_cycle;Max_cycle;Signal;HPM_P1;HPM_P2
2022/01/30 00:01:05;;;;;;;10.55;2.42;;;;;;;7.27;66.95;99302.42;2092076;84;28713;-66
2022/01/30 00:04:06;;;;;;;10.38;2.10;;;;;;;7.13;66.33;99291.98;2104975;84;31041;-66
2022/01/30 00:07:08;;;;;;;13.88;2.90;;;;;;;6.99;66.28;99288.73;2102210;83;33116;-65
2022/01/30 00:10:12;;;;;;;15.80;3.05;;;;;;;6.88;66.13;99288.88;2102144;84;30114;-66
2022/01/30 00:13:17;;;;;;;13.98;2.35;;;;;;;6.74;66.00;99282.45;2105227;82;27637;-66
2022/01/30 00:16:20;;;;;;;8.65;2.50;;;;;;;6.62;65.41;99258.64;2105912;83;28654;-67
2022/01/30 00:19:28;;;;;;;10.90;2.22;;;;;;;6.51;65.20;99267.16;2105713;84;31024;-66
2022/01/30 00:25:44;;;;;;;9.68;2.35;;;;;;;6.32;64.48;99267.21;2101908;84;29342;-65
2022/01/30 00:28:36;;;;;;;12.60;3.62;;;;;;;6.29;65.24;99268.69;2103331;82;28271;-66
2022/01/30 00:31:38;;;;;;;12.47;2.70;;;;;;;6.28;65.36;99279.41;2101408;84;29530;-66
2022/01/30 00:34:40;;;;;;;9.93;2.12;;;;;;;6.27;65.71;99267.05;2106699;83;31149;-67
2022/01/30 00:37:43;;;;;;;12.35;2.45;;;;;;;6.27;65.76;99280.34;2130236;83;33142;-66
2022/01/30 00:40:50;;;;;;;12.55;2.37;;;;;;;6.28;65.80;99271.43;2130315;83;30119;-64
2022/01/30 00:43:52;;;;;;;7.45;2.33;;;;;;;6.27;65.80;99259.06;2130111;83;27637;-65
2022/01/30 00:46:56;;;;;;;8.73;1.95;;;;;;;6.26;65.92;99252.02;2096474;83;30011;-63
2022/01/30 00:49:58;;;;;;;9.40;2.80;;;;;;;6.23;65.85;99267.64;2111189;83;32193;-65
2022/01/30 00:53:01;;;;;;;9.70;2.92;;;;;;;6.25;65.98;99283.55;2129898;83;33826;-64
2022/01/30 00:56:04;;;;;;;8.35;2.27;;;;;;;6.26;66.01;99311.86;2130391;83;29339;-65
2022/01/30 00:59:05;;;;;;;14.43;2.92;;;;;;;6.22;65.77;99331.95;2129639;83;27744;-65
2022/01/30 01:02:07;;;;;;;11.53;2.47;;;;;;;6.18;66.03;99309.58;2115712;84;28494;-64
2022/01/30 01:05:09;;;;;;;12.23;2.42;;;;;;;6.14;66.15;99314.63;2115012;84;31821;-65
2022/01/30 01:08:20;;;;;;;9.98;2.33;;;;;;;6.10;66.18;99317.03;2127533;83;33860;-64
2022/01/30 01:24:23;;;;;;;13.75;2.47;;;;;;;6.08;65.86;99299.36;2128830;83;34117;-65
2022/01/30 01:27:25;;;;;;;12.20;2.12;;;;;;;6.11;65.74;99305.47;2136558;83;30534;-65
2022/01/30 01:30:27;;;;;;;11.20;2.47;;;;;;;6.11;65.59;99309.00;2112046;84;27715;-66
2022/01/30 01:33:53;;;;;;;12.58;2.60;;;;;;;6.12;64.78;99276.16;2112080;84;28646;-65
2022/01/30 01:36:33;;;;;;;11.40;2.77;;;;;;;6.14;64.93;99287.56;2111588;82;31049;-65
2022/01/30 01:39:34;;;;;;;16.32;2.83;;;;;;;6.15;64.67;99289.77;2112009;84;33825;-66
2022/01/30 01:42:36;;;;;;;16.25;2.87;;;;;;;6.16;64.49;99281.70;2111763;83;30268;-66
2022/01/30 01:45:40;;;;;;;14.25;3.02;;;;;;;6.16;64.51;99279.53;2114810;84;27712;-65
2022/01/30 01:48:44;;;;;;;17.50;2.58;;;;;;;6.17;64.43;99278.11;2113918;84;29268;-66
2022/01/30 01:52:01;;;;;;;11.25;2.47;;;;;;;6.17;64.44;99272.80;2112157;84;33595;-64
2022/01/30 01:54:58;;;;;;;19.73;3.33;;;;;;;6.18;64.41;99277.17;2113903;82;33822;-67
2022/01/30 01:58:00;;;;;;;9.90;2.80;;;;;;;6.17;64.03;99257.32;2109489;84;29433;-66
2022/01/30 02:01:02;;;;;;;13.95;3.05;;;;;;;6.16;63.86;99263.09;2104893;84;27700;-67
2022/01/30 02:04:05;;;;;;;9.95;2.50;;;;;;;6.15;63.05;99256.05;2105921;83;29080;-65
2022/01/30 02:10:25;;;;;;;15.40;3.15;;;;;;;6.15;62.74;99249.88;2129743;83;33023;-66
2022/01/30 02:26:54;;;;;;;11.75;2.42;;;;;;;6.07;62.39;99235.15;2031929;87;34347;-66
2022/01/30 02:29:57;;;;;;;10.08;2.08;;;;;;;6.06;62.29;99238.73;2033136;87;30526;-66
2022/01/30 02:32:59;;;;;;;11.97;3.35;;;;;;;6.04;62.42;99239.27;2032577;87;28476;-66
2022/01/30 02:36:04;;;;;;;15.88;2.70;;;;;;;6.04;62.67;99219.34;2030815;87;28658;-66
2022/01/30 02:39:06;;;;;;;13.13;2.47;;;;;;;6.04;62.70;99223.32;2024627;87;31183;-66
2022/01/30 02:42:18;;;;;;;12.80;2.35;;;;;;;6.05;62.57;99236.17;2034066;87;33358;-66
2022/01/30 02:45:15;;;;;;;12.33;2.77;;;;;;;6.06;62.54;99229.91;2031736;87;30096;-66
2022/01/30 02:48:29;;;;;;;14.98;2.52;;;;;;;6.06;62.08;99215.30;2029164;87;27879;-65
2022/01/30 02:51:22;;;;;;;17.37;3.37;;;;;;;6.06;61.00;99213.48;2069833;85;29627;-66
2022/01/30 02:54:29;;;;;;;14.28;2.67;;;;;;;6.08;61.35;99216.08;2072614;85;31129;-67
2022/01/30 02:57:31;;;;;;;15.00;2.95;;;;;;;6.08;61.15;99183.69;2085216;84;33131;-66
2022/01/30 03:00:33;;;;;;;9.48;2.20;;;;;;;6.10;61.01;99195.60;2166174;81;30140;-66
2022/01/30 03:03:34;;;;;;;18.62;3.25;;;;;;;6.10;60.97;99206.23;2165562;82;27666;-66
2022/01/30 03:06:37;;;;;;;14.35;2.27;;;;;;;6.09;60.99;99192.55;2166528;82;29438;-66
2022/01/30 03:09:39;;;;;;;9.70;2.40;;;;;;;6.07;60.95;99183.78;2166370;82;31837;-66
2022/01/30 03:12:41;;;;;;;11.03;2.40;;;;;;;6.07;61.28;99210.37;2166620;82;32930;-66
2022/01/30 03:15:42;;;;;;;13.08;3.08;;;;;;;6.04;60.92;99206.53;2120846;81;29327;-66
2022/01/30 03:18:45;;;;;;;9.08;2.10;;;;;;;6.04;61.25;99198.55;2110786;84;27730;-66
2022/01/30 03:21:47;;;;;;;9.83;1.92;;;;;;;6.01;61.22;99219.52;2110007;83;29525;-67
2022/01/30 03:24:49;;;;;;;13.15;2.37;;;;;;;6.00;61.25;99211.59;2127343;82;31184;-66
2022/01/30 03:27:54;;;;;;;15.32;2.22;;;;;;;5.97;60.94;99211.25;2165502;81;33736;-66
2022/01/30 03:31:00;;;;;;;;;;;;;;;5.97;61.09;99205.05;2163067;81;29313;-66
2022/01/30 03:33:59;;;;;;;16.25;2.52;;;;;;;5.92;60.73;99232.74;2128676;82;27675;-67
2022/01/30 03:37:01;;;;;;;11.83;2.47;;;;;;;5.91;61.08;99205.77;2109948;84;29451;-66
2022/01/30 03:40:03;;;;;;;13.40;3.10;;;;;;;5.89;60.53;99194.34;2102295;83;30985;-64
2022/01/30 03:43:05;;;;;;;12.23;2.75;;;;;;;5.90;60.52;99196.06;2093795;85;33154;-65
2022/01/30 03:46:07;;;;;;;14.18;3.17;;;;;;;5.90;60.97;99189.42;2137694;82;30410;-64
2022/01/30 03:49:09;;;;;;;11.18;2.33;;;;;;;5.89;61.13;99203.64;2166273;82;27716;-65
2022/01/30 03:52:10;;;;;;;11.20;2.65;;;;;;;5.89;61.35;99185.48;2166473;82;29048;-66
2022/01/30 03:55:12;;;;;;;11.90;2.52;;;;;;;5.87;61.29;99186.06;2119367;82;31750;-65
2022/01/30 03:58:14;;;;;;;19.62;3.22;;;;;;;5.85;61.46;99185.27;2071501;83;34112;-65
2022/01/30 04:01:16;;;;;;;14.33;2.87;;;;;;;5.83;61.55;99173.84;2162504;81;30773;-65
2022/01/30 04:04:18;;;;;;;21.10;3.92;;;;;;;5.82;61.25;99178.77;2175100;81;27748;-65
2022/01/30 04:07:20;;;;;;;10.18;2.70;;;;;;;5.81;61.40;99183.69;2176346;80;29990;-65
2022/01/30 04:10:23;;;;;;;20.23;3.02;;;;;;;5.78;61.23;99177.58;2171797;81;32328;-64
2022/01/30 04:13:26;;;;;;;15.30;2.55;;;;;;;5.76;61.16;99167.48;2179335;81;32971;-65
2022/01/30 04:16:29;;;;;;;18.52;2.85;;;;;;;5.74;61.07;99173.34;2175889;81;30158;-66
2022/01/30 04:19:31;;;;;;;11.57;2.80;;;;;;;5.73;61.15;99150.36;2169653;81;27682;-65
2022/01/30 04:22:33;;;;;;;15.25;3.12;;;;;;;5.71;60.79;99140.27;2175539;81;28707;-66
2022/01/30 04:25:35;;;;;;;13.48;3.45;;;;;;;5.70;60.74;99130.60;2169847;81;31862;-66
2022/01/30 04:28:37;;;;;;;13.53;2.77;;;;;;;5.69;60.79;99130.66;2175685;81;33765;-65
2022/01/30 04:31:41;;;;;;;20.10;3.33;;;;;;;5.67;60.90;99131.19;2175853;81;30111;-64
2022/01/30 04:34:51;;;;;;;16.90;3.13;;;;;;;5.64;60.97;99130.89;2171639;81;27680;-65
2022/01/30 04:41:28;;;;;;;11.53;3.00;;;;;;;5.58;61.44;99117.88;2172564;81;32304;-64
2022/01/30 05:00:56;;;;;;;14.13;3.10;;;;;;;5.55;61.42;99177.80;2135913;81;33013;-66
2022/01/30 05:04:02;;;;;;;13.75;2.58;;;;;;;5.54;61.60;99185.41;2113530;83;29363;-66
2022/01/30 05:10:04;;;;;;;14.13;2.50;;;;;;;5.55;61.47;99172.48;2104507;84;28081;-66
2022/01/30 05:13:10;;;;;;;11.12;2.40;;;;;;;5.55;61.56;99168.05;2105000;84;31030;-67
2022/01/30 05:16:11;;;;;;;12.28;2.65;;;;;;;5.57;61.49;99156.89;2125201;83;32982;-65
2022/01/30 05:19:14;;;;;;;18.15;2.67;;;;;;;5.56;61.57;99159.59;2125025;83;29375;-66
2022/01/30 05:22:17;;;;;;;10.98;2.42;;;;;;;5.56;61.55;99138.34;2124628;83;27707;-66
2022/01/30 05:25:19;;;;;;;16.07;2.80;;;;;;;5.56;61.55;99139.67;2141149;82;28080;-65
2022/01/30 05:28:22;;;;;;;12.45;2.27;;;;;;;5.56;61.29;99127.72;2125004;83;31009;-66
2022/01/30 05:31:25;;;;;;;13.70;2.62;;;;;;;5.55;61.27;99128.66;2128494;83;33852;-66
2022/01/30 05:34:27;;;;;;;10.20;2.17;;;;;;;5.54;61.36;99109.70;2115665;83;30174;-66
2022/01/30 05:37:29;;;;;;;9.15;2.05;;;;;;;5.53;61.37;99101.33;2105719;83;27720;-65
2022/01/30 05:40:35;;;;;;;11.05;2.25;;;;;;;5.53;61.37;99096.86;2102254;84;29656;-65
2022/01/30 05:43:38;;;;;;;11.53;2.83;;;;;;;5.51;61.27;99089.43;2101713;84;31775;-66
2022/01/30 05:46:48;;;;;;;14.73;2.80;;;;;;;5.49;61.32;99063.41;2102173;84;32965;-65
2022/01/30 05:49:45;;;;;;;14.07;2.37;;;;;;;5.44;61.23;99064.97;2105433;83;30205;-66
2022/01/30 05:52:48;;;;;;;16.60;2.45;;;;;;;5.42;61.41;99056.20;2105831;83;27749;-65
2022/01/30 05:55:51;;;;;;;7.20;2.05;;;;;;;5.41;61.55;99042.53;2105722;84;28653;-65
2022/01/30 05:58:52;;;;;;;9.98;1.82;;;;;;;5.40;61.57;99067.37;2104656;83;31979;-65
2022/01/30 06:01:54;;;;;;;13.22;2.45;;;;;;;5.38;61.54;99034.70;2101687;84;33042;-66
2022/01/30 06:04:56;;;;;;;6.72;2.17;;;;;;;5.36;61.74;99106.98;2105184;84;29359;-65
2022/01/30 06:08:08;;;;;;;10.78;2.02;;;;;;;5.35;61.99;99073.84;2106023;83;27698;-65
2022/01/30 06:11:01;;;;;;;9.90;2.08;;;;;;;5.31;62.05;99108.50;2103765;84;28683;-66
2022/01/30 06:14:03;;;;;;;11.28;2.25;;;;;;;5.28;62.52;99086.10;2105327;84;31889;-65
2022/01/30 06:17:05;;;;;;;13.08;2.80;;;;;;;5.26;62.74;99076.47;2105690;84;33153;-66
2022/01/30 06:20:08;;;;;;;11.10;2.33;;;;;;;5.22;62.73;99085.51;2105692;84;29464;-66
2022/01/30 06:23:10;;;;;;;9.98;2.25;;;;;;;5.19;62.88;99096.30;2105568;84;27736;-66
2022/01/30 06:26:12;;;;;;;17.20;2.80;;;;;;;5.16;63.30;99094.63;2102033;84;28810;-65
2022/01/30 06:29:13;;;;;;;17.30;3.65;;;;;;;5.12;63.86;99095.24;2101934;84;31854;-65
2022/01/30 06:32:16;;;;;;;12.93;3.02;;;;;;;5.07;64.24;99082.64;2101982;84;32960;-65
2022/01/30 06:35:18;;;;;;;11.30;2.75;;;;;;;5.02;64.54;99080.69;2102059;84;29386;-64
2022/01/30 06:38:20;;;;;;;7.00;1.92;;;;;;;4.96;64.63;99076.53;2102072;84;27656;-65
2022/01/30 06:41:21;;;;;;;14.23;2.17;;;;;;;4.91;64.45;99068.36;2105262;83;28604;-65
2022/01/30 06:44:23;;;;;;;10.63;2.08;;;;;;;4.89;64.35;99059.16;2105521;84;31098;-66
2022/01/30 06:47:25;;;;;;;8.45;2.25;;;;;;;4.90;64.39;99057.35;2105637;84;33011;-66
2022/01/30 06:50:27;;;;;;;8.68;2.30;;;;;;;4.90;64.28;99066.19;2101797;84;30383;-65
2022/01/30 06:53:29;;;;;;;12.85;2.60;;;;;;;4.90;64.05;99090.08;2101947;84;28295;-65
2022/01/30 06:56:30;;;;;;;9.93;3.17;;;;;;;4.93;64.13;99109.84;2101721;84;28648;-65
2022/01/30 06:59:33;;;;;;;14.35;3.17;;;;;;;4.92;64.40;99121.39;2113675;83;31010;-66
2022/01/30 07:02:35;;;;;;;8.75;2.17;;;;;;;4.92;64.54;99120.06;2136407;83;33012;-65
2022/01/30 07:05:36;;;;;;;12.90;2.50;;;;;;;4.91;64.69;99090.47;2137194;83;29422;-65
2022/01/30 07:08:38;;;;;;;15.65;3.85;;;;;;;4.89;64.64;99086.14;2137160;83;27865;-67
2022/01/30 07:11:40;;;;;;;13.78;2.47;;;;;;;4.85;64.53;99097.38;2136994;83;29512;-66
2022/01/30 07:14:45;;;;;;;14.38;3.37;;;;;;;4.83;64.57;99108.52;2118132;83;31004;-66
2022/01/30 07:17:46;;;;;;;14.78;2.92;;;;;;;4.85;64.60;99115.95;2115293;84;33174;-66
2022/01/30 07:20:48;;;;;;;8.68;2.45;;;;;;;4.88;64.61;99124.26;2114481;84;29976;-65
2022/01/30 07:23:50;;;;;;;11.08;2.65;;;;;;;4.90;64.64;99116.61;2124813;83;27695;-65
2022/01/30 07:26:52;;;;;;;16.70;2.72;;;;;;;4.91;64.79;99120.11;2134442;83;28737;-65
2022/01/30 07:29:54;;;;;;;9.10;2.35;;;;;;;4.94;65.04;99112.89;2114714;84;31857;-65
2022/01/30 07:32:56;;;;;;;8.83;2.58;;;;;;;4.94;65.16;99085.48;2113588;83;33562;-65
2022/01/30 07:35:57;;;;;;;9.38;1.95;;;;;;;4.95;65.27;99095.16;2113810;83;30117;-64
2022/01/30 07:38:59;;;;;;;8.23;2.67;;;;;;;4.97;65.47;99098.61;2115933;83;27764;-65
2022/01/30 07:42:01;;;;;;;11.85;2.70;;;;;;;5.03;65.49;99122.23;2114599;84;29670;-65
2022/01/30 07:45:04;;;;;;;15.30;3.25;;;;;;;5.09;65.48;99120.59;2087578;84;31785;-65
2022/01/30 07:48:06;;;;;;;11.88;2.72;;;;;;;5.11;65.27;99129.36;2113954;83;32999;-65
2022/01/30 07:51:08;;;;;;;10.40;2.58;;;;;;;5.12;65.32;99116.48;2115758;84;29361;-64
2022/01/30 07:54:10;;;;;;;14.85;5.25;;;;;;;5.15;65.05;99122.10;2115824;84;27686;-65
2022/01/30 07:57:14;;;;;;;10.55;3.17;;;;;;;5.16;64.68;99111.88;2114628;83;28826;-65
2022/01/30 08:00:17;;;;;;;13.30;3.72;;;;;;;5.17;64.49;99106.97;2110948;84;32170;-65
2022/01/30 08:03:19;;;;;;;13.13;3.87;;;;;;;5.16;64.06;99109.23;2112648;83;33822;-65
2022/01/30 08:06:21;;;;;;;13.93;3.90;;;;;;;5.20;64.07;99108.64;2115831;84;29524;-65
2022/01/30 08:09:22;;;;;;;17.30;2.92;;;;;;;5.24;64.04;99122.14;2116110;83;27738;-65
2022/01/30 08:12:24;;;;;;;19.75;3.87;;;;;;;5.28;63.58;99113.11;2115865;84;28855;-65
2022/01/30 08:15:26;;;;;;;14.87;4.65;;;;;;;5.33;63.51;99124.38;2122276;83;31882;-65
2022/01/30 08:18:28;;;;;;;12.60;3.30;;;;;;;5.40;63.51;99118.31;2137227;82;33777;-65
2022/01/30 08:21:30;;;;;;;15.95;3.80;;;;;;;5.50;63.44;99115.59;2116081;83;29311;-64
2022/01/30 08:24:32;;;;;;;18.05;3.87;;;;;;;5.59;63.30;99103.22;2116212;84;27754;-65
2022/01/30 08:27:38;;;;;;;17.17;3.50;;;;;;;5.66;62.89;99139.65;2115746;84;28515;-65
2022/01/30 08:30:41;;;;;;;13.72;3.27;;;;;;;5.74;62.62;99133.96;2113192;84;31874;-65
2022/01/30 08:33:42;;;;;;;14.33;3.72;;;;;;;5.81;62.80;99126.55;2112241;84;34134;-65
2022/01/30 08:36:44;;;;;;;14.78;3.25;;;;;;;5.86;61.84;99147.97;2112188;84;30309;-66
2022/01/30 08:39:46;;;;;;;20.17;4.78;;;;;;;5.94;61.75;99146.27;2113225;84;27707;-65
2022/01/30 08:42:49;;;;;;;11.35;3.72;;;;;;;6.01;61.99;99122.92;2115949;84;29484;-65
2022/01/30 08:45:51;;;;;;;23.38;4.28;;;;;;;6.05;61.77;99153.75;2115808;84;31021;-65
2022/01/30 08:48:53;;;;;;;17.15;4.47;;;;;;;6.07;60.64;99130.13;2115755;84;33085;-65
2022/01/30 08:51:55;;;;;;;19.37;5.37;;;;;;;6.10;60.90;99133.13;2114694;84;30529;-66
2022/01/30 08:54:57;;;;;;;22.93;4.42;;;;;;;6.15;60.84;99136.87;2118774;83;27772;-65
2022/01/30 08:58:07;;;;;;;19.92;3.55;;;;;;;6.19;60.21;99110.04;2137048;83;28706;-65
2022/01/30 09:01:03;;;;;;;21.33;4.55;;;;;;;6.26;60.02;99149.63;2117123;83;31034;-65
2022/01/30 09:04:17;;;;;;;;;;;;;;;;;;;;;
2022/01/30 09:07:15;;;;;;;19.02;5.75;;;;;;;6.33;60.39;99158.55;2102656;83;27761;-68
2022/01/30 09:10:17;;;;;;;17.95;5.50;;;;;;;6.38;60.50;99181.77;2105565;84;27792;-65
2022/01/30 09:13:19;;;;;;;17.23;5.50;;;;;;;6.44;60.51;99177.96;2106142;83;28731;-66
2022/01/30 09:16:24;;;;;;;;;;;;;;;6.45;60.41;99186.79;2107939;83;31318;-65
2022/01/30 09:19:26;;;;;;;18.57;4.10;;;;;;;6.47;60.52;99189.75;2105658;84;33107;-66
2022/01/30 09:22:28;;;;;;;18.07;5.33;;;;;;;6.44;60.25;99181.08;2105988;84;29306;-67
2022/01/30 09:25:31;;;;;;;19.55;5.17;;;;;;;6.39;60.67;99178.17;2130397;83;27645;-65
2022/01/30 09:28:37;;;;;;;19.23;4.90;;;;;;;6.41;60.28;99178.56;2118826;83;29643;-66
2022/01/30 09:31:39;;;;;;;23.00;5.15;;;;;;;6.38;60.83;99176.45;2105975;84;31009;-67
2022/01/30 09:34:41;;;;;;;19.32;7.10;;;;;;;6.43;60.10;99201.96;2088593;85;33819;-67
2022/01/30 09:37:48;;;;;;;33.18;10.53;;;;;;;6.43;60.79;99221.91;2037762;85;29381;-67
2022/01/30 09:40:58;;;;;;;26.30;8.93;;;;;;;6.37;61.20;99231.06;2105846;84;27763;-67
2022/01/30 09:44:01;;;;;;;18.20;5.10;;;;;;;6.27;61.75;99257.25;2088840;84;28825;-67
2022/01/30 09:47:06;;;;;;;18.77;4.17;;;;;;;6.16;62.12;99261.76;2070186;86;31080;-67
2022/01/30 09:50:10;;;;;;;19.30;4.10;;;;;;;6.02;62.41;99278.40;2088407;84;33716;-66
2022/01/30 09:53:18;;;;;;;16.55;4.17;;;;;;;5.86;62.75;99276.03;2093848;85;29371;-64
2022/01/30 09:56:20;;;;;;;17.27;4.95;;;;;;;5.70;63.54;99299.33;2093046;85;27751;-66
2022/01/30 09:59:25;;;;;;;23.05;5.08;;;;;;;5.51;64.05;99348.43;2072428;84;32407;-65
2022/01/30 10:02:32;;;;;;;32.15;9.50;;;;;;;5.36;64.17;99323.42;2092714;85;31205;-67
2022/01/30 10:05:39;;;;;;;24.23;6.33;;;;;;;5.16;64.60;99318.52;2088811;85;30598;-66
2022/01/30 10:08:46;;;;;;;25.52;4.78;;;;;;;4.96;65.06;99323.81;2102234;83;30386;-67
2022/01/30 10:12:00;;;;;;;19.40;5.37;;;;;;;4.80;65.44;99338.20;2105409;83;27762;-66
2022/01/30 10:15:08;;;;;;;31.50;6.55;;;;;;;4.72;65.97;99341.14;2029664;86;28758;-66
2022/01/30 10:18:10;;;;;;;;;;;;;;;4.69;66.24;99330.68;2053961;86;31018;-67
2022/01/30 10:21:21;;;;;;;18.42;5.30;;;;;;;4.73;66.79;99347.33;2008290;86;33133;-66
2022/01/30 10:24:29;;;;;;;17.20;5.12;;;;;;;4.86;67.32;99333.50;2029519;86;30187;-67
2022/01/30 10:27:33;;;;;;;15.10;4.08;;;;;;;5.01;67.41;99331.97;2058862;85;27763;-66
2022/01/30 10:30:58;;;;;;;17.15;3.35;;;;;;;5.13;67.58;99337.23;2050130;85;28796;-67
2022/01/30 10:34:01;;;;;;;17.90;4.87;;;;;;;5.28;67.52;99306.95;2051749;86;31168;-65
2022/01/30 10:37:23;;;;;;;14.83;3.67;;;;;;;5.46;67.49;99311.45;2051118;85;33529;-69
2022/01/30 10:40:35;;;;;;;18.35;3.37;;;;;;;5.62;67.44;99326.26;1983116;89;30218;-66
2022/01/30 10:47:16;;;;;;;18.42;3.50;;;;;;;5.91;67.43;99333.81;1869282;94;28697;-68
2022/01/30 10:50:24;;;;;;;18.25;3.80;;;;;;;6.04;67.31;99341.64;1886670;94;28514;-66
2022/01/30 10:53:27;;;;;;;16.67;3.45;;;;;;;6.07;67.13;99322.89;1890303;94;33033;-66
2022/01/30 10:56:31;;;;;;;13.38;3.33;;;;;;;6.08;66.96;99345.89;1880651;94;29357;-66
2022/01/30 10:59:43;;;;;;;;;;;;;;;6.01;66.60;99341.80;1866909;94;27911;-66
2022/01/30 11:02:48;;;;;;;16.93;3.87;;;;;;;5.95;66.50;99328.75;1877957;93;28785;-67
2022/01/30 11:05:58;;;;;;;24.12;4.08;;;;;;;5.92;66.69;99328.44;1905973;93;31176;-66
2022/01/30 11:12:32;;;;;;;24.63;3.70;;;;;;;5.86;66.50;99322.06;1764003;100;27933;-64
2022/01/30 11:15:43;;;;;;;20.75;5.25;;;;;;;5.86;66.11;99324.72;1764525;96;28031;-66
2022/01/30 11:18:43;;;;;;;25.95;5.80;;;;;;;5.87;66.30;99324.27;1844466;96;29092;-64
2022/01/30 11:21:56;;;;;;;21.42;6.53;;;;;;;5.84;65.99;99314.63;1846016;96;33269;-65
2022/01/30 11:25:08;;;;;;;18.65;5.75;;;;;;;5.85;66.00;99345.59;1845113;96;33083;-66
2022/01/30 11:28:11;;;;;;;21.12;4.65;;;;;;;5.84;66.06;99347.84;1845746;96;30490;-65
2022/01/30 11:31:16;;;;;;;25.75;6.37;;;;;;;5.84;65.54;99353.16;1846178;96;28425;-63
2022/01/30 11:34:19;;;;;;;17.85;3.92;;;;;;;5.85;65.73;99356.70;1846710;96;28910;-68
2022/01/30 11:37:28;;;;;;;30.92;5.97;;;;;;;5.87;65.09;99349.05;1846501;96;31759;-65
2022/01/30 11:40:30;;;;;;;23.65;5.92;;;;;;;5.88;65.53;99357.42;1844749;96;33047;-70
2022/01/30 11:43:32;;;;;;;25.23;4.80;;;;;;;5.90;65.44;99366.19;1845378;96;29477;-67
2022/01/30 11:46:34;;;;;;;39.85;12.47;;;;;;;5.91;64.93;99380.33;1846536;96;27816;-66
2022/01/30 11:49:43;;;;;;;23.27;5.92;;;;;;;5.95;64.99;99366.45;1848165;96;28680;-66
2022/01/30 11:53:06;;;;;;;20.75;6.35;;;;;;;5.98;64.95;99367.61;1848237;96;31985;-66
2022/01/30 11:56:09;;;;;;;21.37;5.40;;;;;;;6.04;64.95;99374.88;1834962;96;33084;-67
2022/01/30 11:59:13;;;;;;;27.20;5.97;;;;;;;6.09;64.98;99381.33;1829215;96;29391;-65
2022/01/30 12:02:35;;;;;;;20.65;5.92;;;;;;;6.14;64.98;99379.78;1813431;97;27721;-71
2022/01/30 12:05:37;;;;;;;22.10;5.53;;;;;;;6.17;64.77;99396.94;1823231;97;28810;-69
2022/01/30 12:08:48;;;;;;;22.60;4.72;;;;;;;6.23;64.77;99384.66;1902798;87;31072;-73
2022/01/30 12:11:52;;;;;;;30.30;6.60;;;;;;;6.29;64.36;99380.88;2028990;87;33867;-72
2022/01/30 12:14:57;;;;;;;19.63;5.27;;;;;;;6.28;64.01;99384.47;2058704;83;29324;-69
2022/01/30 12:18:00;;;;;;;21.90;4.70;;;;;;;6.27;63.93;99405.35;2075496;84;27642;-68
2022/01/30 12:21:08;;;;;;;22.98;5.40;;;;;;;6.24;64.17;99410.33;2073079;85;28824;-64
2022/01/30 12:24:28;;;;;;;23.05;5.15;;;;;;;6.22;63.66;99402.88;2068911;86;31032;-65
2022/01/30 12:27:50;;;;;;;21.52;5.25;;;;;;;6.19;63.57;99403.89;2069006;86;33173;-65
2022/01/30 12:30:52;;;;;;;25.57;4.58;;;;;;;6.18;63.64;99417.28;2107929;84;29177;-65
2022/01/30 12:34:04;;;;;;;29.32;7.87;;;;;;;6.16;63.44;99422.65;2108262;84;27598;-65
2022/01/30 12:37:07;;;;;;;20.85;6.17;;;;;;;6.16;63.50;99423.13;2080747;84;28649;-65
2022/01/30 12:40:18;;;;;;;18.55;5.53;;;;;;;6.16;63.54;99413.34;2048165;86;32463;-65
2022/01/30 12:43:31;;;;;;;22.70;5.28;;;;;;;6.15;63.30;99430.70;2069315;85;33574;-69
2022/01/30 12:46:51;;;;;;;19.25;4.37;;;;;;;6.16;63.40;99433.28;2069722;86;29338;-65
2022/01/30 12:49:57;;;;;;;20.57;5.10;;;;;;;6.18;63.59;99442.06;2069353;86;27643;-66
2022/01/30 12:52:56;;;;;;;21.97;4.65;;;;;;;6.17;63.35;99462.94;2043758;85;29587;-65
2022/01/30 12:56:00;;;;;;;22.95;5.87;;;;;;;6.15;62.96;99452.83;2037675;87;31021;-65
2022/01/30 12:59:07;;;;;;;25.43;6.00;;;;;;;6.12;63.10;99458.77;2038194;87;32883;-65
2022/01/30 13:02:14;;;;;;;20.30;6.12;;;;;;;6.12;63.29;99463.63;2056827;84;29367;-65
2022/01/30 13:05:18;;;;;;;36.35;5.90;;;;;;;6.11;63.23;99474.31;2102933;84;28348;-66
2022/01/30 13:08:57;;;;;;;23.60;5.92;;;;;;;6.11;63.23;99480.52;2144803;82;27575;-63
2022/01/30 13:12:03;;;;;;;25.77;6.42;;;;;;;6.12;63.27;99473.39;2136191;83;31554;-64
2022/01/30 13:15:11;;;;;;;21.95;5.53;;;;;;;6.12;63.14;99493.33;2123695;83;34708;-64
2022/01/30 13:18:14;;;;;;;27.60;8.48;;;;;;;6.11;63.28;99500.46;2087726;85;29524;-63
2022/01/30 13:21:23;;;;;;;27.90;5.67;;;;;;;6.13;63.42;99497.72;2064219;85;27674;-63
2022/01/30 13:24:26;;;;;;;25.37;6.47;;;;;;;6.11;63.04;99513.76;2081150;85;28683;-64
2022/01/30 13:27:29;;;;;;;22.48;5.45;;;;;;;6.08;63.16;99517.39;2102980;84;31068;-64
2022/01/30 13:30:42;;;;;;;23.25;5.17;;;;;;;6.08;63.06;99532.02;2146995;82;33027;-67
2022/01/30 13:33:46;;;;;;;31.17;6.47;;;;;;;6.08;63.06;99538.66;2144758;82;27761;-64
2022/01/30 13:36:53;;;;;;;38.95;9.08;;;;;;;6.10;62.91;99535.95;2165527;81;27715;-63
2022/01/30 13:43:39;;;;;;;45.95;16.07;;;;;;;6.08;62.63;99551.96;2141720;81;31241;-64
2022/01/30 13:50:17;;;;;;;39.85;13.35;;;;;;;6.08;62.59;99563.92;2065180;86;27899;-65
2022/01/30 13:53:28;;;;;;;30.72;8.20;;;;;;;6.08;62.66;99579.03;2026674;87;27715;-63
2022/01/30 13:56:31;;;;;;;35.30;8.18;;;;;;;6.09;62.78;99587.41;2017534;88;28866;-63
2022/01/30 13:59:38;;;;;;;33.87;7.47;;;;;;;6.06;62.33;99583.06;2011272;88;28209;-62
2022/01/30 14:03:05;;;;;;;27.45;7.17;;;;;;;6.06;62.44;99603.01;1981960;88;33669;-62
2022/01/30 14:06:22;;;;;;;28.55;6.47;;;;;;;6.05;62.48;99603.09;1993248;88;29539;-63
2022/01/30 14:09:25;;;;;;;28.17;6.25;;;;;;;6.06;62.50;99606.15;1983089;89;27805;-66
2022/01/30 14:12:39;;;;;;;24.15;5.67;;;;;;;6.06;62.63;99622.10;1983464;89;29927;-63
2022/01/30 14:15:41;;;;;;;28.98;6.28;;;;;;;6.04;62.02;99618.64;1975278;89;31119;-61
2022/01/30 14:18:54;;;;;;;28.57;6.15;;;;;;;6.01;62.53;99635.59;1983093;89;33016;-63
2022/01/30 14:22:13;;;;;;;31.65;6.65;;;;;;;6.00;62.64;99643.17;1996308;87;29399;-62
2022/01/30 14:25:18;;;;;;;23.12;5.12;;;;;;;6.02;62.50;99636.45;1999836;89;27978;-63
2022/01/30 14:28:31;;;;;;;35.52;6.75;;;;;;;6.01;62.40;99657.31;1999116;89;29588;-63
2022/01/30 14:31:53;;;;;;;32.67;8.28;;;;;;;5.99;62.18;99669.33;1987130;89;28742;-62
2022/01/30 14:34:55;;;;;;;26.55;6.62;;;;;;;5.98;62.08;99678.22;2000299;89;33325;-62
2022/01/30 14:37:58;;;;;;;24.90;6.83;;;;;;;5.99;62.51;99678.63;1997094;88;29425;-63
2022/01/30 14:41:01;;;;;;;30.60;5.92;;;;;;;5.97;62.46;99677.82;2000588;88;27705;-62
2022/01/30 14:44:03;;;;;;;29.85;7.15;;;;;;;5.98;62.35;99689.30;1999316;88;28488;-63
2022/01/30 14:47:09;;;;;;;29.27;6.33;;;;;;;5.97;62.22;99690.23;2000423;88;31878;-63
2022/01/30 14:50:11;;;;;;;30.57;6.00;;;;;;;5.96;62.28;99696.03;2000596;88;32993;-63
2022/01/30 14:53:13;;;;;;;28.15;7.22;;;;;;;5.95;62.18;99708.92;2043533;85;30162;-63
2022/01/30 14:56:14;;;;;;;29.57;5.08;;;;;;;5.94;62.14;99712.50;2061413;85;27755;-62
2022/01/30 14:59:17;;;;;;;30.27;6.83;;;;;;;5.95;62.30;99712.91;2070842;85;29362;-62
2022/01/30 15:02:19;;;;;;;27.50;6.87;;;;;;;5.95;62.30;99728.86;2077838;84;31080;-63
2022/01/30 15:05:22;;;;;;;30.92;7.45;;;;;;;5.93;62.22;99727.60;2103790;83;35119;-63
2022/01/30 15:08:24;;;;;;;34.25;6.33;;;;;;;5.93;62.21;99728.05;2102159;83;30195;-63
2022/01/30 15:11:27;;;;;;;27.27;6.97;;;;;;;5.95;61.89;99722.69;2104401;83;27774;-63
2022/01/30 15:14:35;;;;;;;28.32;5.17;;;;;;;5.91;61.75;99736.09;2104963;83;29886;-63
2022/01/30 15:17:35;;;;;;;29.55;6.37;;;;;;;5.93;61.95;99742.67;2103338;83;31893;-64
2022/01/30 15:20:36;;;;;;;31.97;6.80;;;;;;;5.93;61.67;99745.33;2096166;83;32990;-64
2022/01/30 15:23:40;;;;;;;30.80;5.42;;;;;;;5.93;61.61;99747.54;2103540;83;30689;-63
2022/01/30 15:26:42;;;;;;;34.67;6.78;;;;;;;5.92;61.57;99743.15;2105123;83;27605;-64
2022/01/30 15:29:43;;;;;;;33.15;7.75;;;;;;;5.92;61.62;99753.78;2107234;83;28773;-64
2022/01/30 15:32:45;;;;;;;26.90;7.75;;;;;;;5.95;61.60;99770.55;2104233;83;31186;-65
2022/01/30 15:35:49;;;;;;;29.77;6.40;;;;;;;5.95;61.75;99772.72;2104735;83;33037;-62
2022/01/30 15:38:50;;;;;;;33.40;7.95;;;;;;;5.95;61.43;99763.42;2104930;83;29284;-60
2022/01/30 15:41:54;;;;;;;29.55;8.28;;;;;;;5.95;61.34;99772.72;2094644;83;28641;-63